sensor_id;sensor_type;location;lat;lon;timestamp;P1;durP1;ratioP1;P2;durP2;ratioP2
14181;SDS011;7171;50.936;6.764;2024-02-26T00:01:46;2.97;;;1.00;;
14181;SDS011;7171;50.936;6.764;2024-02-26T00:04:13;0.83;;;0.83;;
14181;SDS011;7171;50.936;6.764;2024-02-26T00:06:39;0.90;;;0.90;;
14181;SDS011;7171;50.936;6.764;2024-02-26T00:09:08;1.10;;;1.00;;
14181;SDS011;7171;50.936;6.764;2024-02-26T00:11:35;2.10;;;1.40;;
14181;SDS011;7171;50.936;6.764;2024-02-26T00:14:02;2.10;;;1.20;;
14181;SDS011;7171;50.936;6.764;2024-02-26T00:16:29;1.33;;;1.23;;
14181;SDS011;7171;50.936;6.764;2024-02-26T00:18:55;1.60;;;1.30;;
14181;SDS011;7171;50.936;6.764;2024-02-26T00:21:22;0.97;;;0.90;;
14181;SDS011;7171;50.936;6.764;2024-02-26T00:23:49;0.93;;;0.77;;
14181;SDS011;7171;50.936;6.764;2024-02-26T00:26:17;0.70;;;0.70;;
14181;SDS011;7171;50.936;6.764;2024-02-26T00:28:44;0.90;;;0.90;;
14181;SDS011;7171;50.936;6.764;2024-02-26T00:31:11;1.00;;;1.00;;
14181;SDS011;7171;50.936;6.764;2024-02-26T00:33:38;1.20;;;1.10;;
14181;SDS011;7171;50.936;6.764;2024-02-26T00:36:05;1.20;;;1.10;;
14181;SDS011;7171;50.936;6.764;2024-02-26T00:38:32;1.07;;;0.97;;
14181;SDS011;7171;50.936;6.764;2024-02-26T00:40:58;1.10;;;1.00;;
14181;SDS011;7171;50.936;6.764;2024-02-26T00:43:26;1.17;;;0.93;;
14181;SDS011;7171;50.936;6.764;2024-02-26T00:45:53;1.10;;;1.00;;
14181;SDS011;7171;50.936;6.764;2024-02-26T00:48:20;2.87;;;1.43;;
14181;SDS011;7171;50.936;6.764;2024-02-26T00:50:46;2.70;;;1.23;;
14181;SDS011;7171;50.936;6.764;2024-02-26T00:53:13;1.20;;;1.10;;
14181;SDS011;7171;50.936;6.764;2024-02-26T00:55:40;1.10;;;0.90;;
14181;SDS011;7171;50.936;6.764;2024-02-26T00:58:06;1.97;;;1.10;;
14181;SDS011;7171;50.936;6.764;2024-02-26T01:00:34;1.10;;;1.00;;
14181;SDS011;7171;50.936;6.764;2024-02-26T01:03:01;1.33;;;1.10;;
14181;SDS011;7171;50.936;6.764;2024-02-26T01:05:28;1.10;;;1.00;;
14181;SDS011;7171;50.936;6.764;2024-02-26T01:07:55;0.77;;;0.77;;
14181;SDS011;7171;50.936;6.764;2024-02-26T01:10:22;1.20;;;0.90;;
14181;SDS011;7171;50.936;6.764;2024-02-26T01:12:48;1.23;;;1.10;;
14181;SDS011;7171;50.936;6.764;2024-02-26T01:15:15;1.40;;;1.10;;
14181;SDS011;7171;50.936;6.764;2024-02-26T01:17:45;0.80;;;0.80;;
14181;SDS011;7171;50.936;6.764;2024-02-26T01:20:11;2.17;;;0.80;;
14181;SDS011;7171;50.936;6.764;2024-02-26T01:22:38;1.10;;;0.90;;
14181;SDS011;7171;50.936;6.764;2024-02-26T01:25:06;1.53;;;1.40;;
14181;SDS011;7171;50.936;6.764;2024-02-26T01:27:34;0.97;;;0.90;;
14181;SDS011;7171;50.936;6.764;2024-02-26T01:30:01;1.20;;;1.07;;
14181;SDS011;7171;50.936;6.764;2024-02-26T01:32:29;1.10;;;1.00;;
14181;SDS011;7171;50.936;6.764;2024-02-26T01:34:57;0.83;;;0.83;;
14181;SDS011;7171;50.936;6.764;2024-02-26T01:37:23;1.03;;;1.00;;
14181;SDS011;7171;50.936;6.764;2024-02-26T01:39:50;1.10;;;1.00;;
14181;SDS011;7171;50.936;6.764;2024-02-26T01:42:17;0.97;;;0.90;;
14181;SDS011;7171;50.936;6.764;2024-02-26T01:44:44;0.90;;;0.90;;
14181;SDS011;7171;50.936;6.764;2024-02-26T01:47:11;1.10;;;0.93;;
14181;SDS011;7171;50.936;6.764;2024-02-26T01:49:39;0.87;;;0.87;;
14181;SDS011;7171;50.936;6.764;2024-02-26T01:52:08;0.80;;;0.80;;
14181;SDS011;7171;50.936;6.764;2024-02-26T01:54:36;0.90;;;0.90;;
14181;SDS011;7171;50.936;6.764;2024-02-26T01:57:04;1.00;;;0.80;;
14181;SDS011;7171;50.936;6.764;2024-02-26T01:59:32;0.80;;;0.80;;
14181;SDS011;7171;50.936;6.764;2024-02-26T02:02:00;2.27;;;1.00;;
14181;SDS011;7171;50.936;6.764;2024-02-26T02:04:29;2.00;;;1.00;;
14181;SDS011;7171;50.936;6.764;2024-02-26T02:06:56;1.00;;;0.90;;
14181;SDS011;7171;50.936;6.764;2024-02-26T02:09:27;0.93;;;0.83;;
14181;SDS011;7171;50.936;6.764;2024-02-26T02:11:54;0.93;;;0.90;;
14181;SDS011;7171;50.936;6.764;2024-02-26T02:14:21;0.83;;;0.80;;
14181;SDS011;7171;50.936;6.764;2024-02-26T02:16:48;0.87;;;0.87;;
14181;SDS011;7171;50.936;6.764;2024-02-26T02:19:15;1.97;;;1.10;;
14181;SDS011;7171;50.936;6.764;2024-02-26T02:21:43;0.80;;;0.80;;
14181;SDS011;7171;50.936;6.764;2024-02-26T02:24:09;2.03;;;1.10;;
14181;SDS011;7171;50.936;6.764;2024-02-26T02:26:36;1.63;;;0.90;;
14181;SDS011;7171;50.936;6.764;2024-02-26T02:29:03;1.53;;;0.90;;
14181;SDS011;7171;50.936;6.764;2024-02-26T02:31:31;1.10;;;0.80;;
14181;SDS011;7171;50.936;6.764;2024-02-26T02:33:58;0.83;;;0.83;;
14181;SDS011;7171;50.936;6.764;2024-02-26T02:36:26;0.80;;;0.80;;
14181;SDS011;7171;50.936;6.764;2024-02-26T02:38:54;0.70;;;0.70;;
14181;SDS011;7171;50.936;6.764;2024-02-26T02:41:21;0.80;;;0.80;;
14181;SDS011;7171;50.936;6.764;2024-02-26T02:43:47;0.97;;;0.93;;
14181;SDS011;7171;50.936;6.764;2024-02-26T02:46:14;0.83;;;0.83;;
14181;SDS011;7171;50.936;6.764;2024-02-26T02:48:41;1.70;;;1.00;;
14181;SDS011;7171;50.936;6.764;2024-02-26T02:51:08;1.07;;;1.00;;
14181;SDS011;7171;50.936;6.764;2024-02-26T02:53:35;0.80;;;0.80;;
14181;SDS011;7171;50.936;6.764;2024-02-26T02:56:03;1.33;;;0.87;;
14181;SDS011;7171;50.936;6.764;2024-02-26T02:58:30;0.80;;;0.70;;
14181;SDS011;7171;50.936;6.764;2024-02-26T03:00:57;1.00;;;0.93;;
14181;SDS011;7171;50.936;6.764;2024-02-26T03:03:25;1.50;;;1.00;;
14181;SDS011;7171;50.936;6.764;2024-02-26T03:05:53;0.70;;;0.70;;
14181;SDS011;7171;50.936;6.764;2024-02-26T03:08:20;1.50;;;1.13;;
14181;SDS011;7171;50.936;6.764;2024-02-26T03:10:47;0.73;;;0.73;;
14181;SDS011;7171;50.936;6.764;2024-02-26T03:13:15;0.90;;;0.90;;
14181;SDS011;7171;50.936;6.764;2024-02-26T03:15:42;0.93;;;0.93;;
14181;SDS011;7171;50.936;6.764;2024-02-26T03:18:08;1.30;;;1.00;;
14181;SDS011;7171;50.936;6.764;2024-02-26T03:20:35;1.70;;;0.93;;
14181;SDS011;7171;50.936;6.764;2024-02-26T03:23:02;1.33;;;0.90;;
14181;SDS011;7171;50.936;6.764;2024-02-26T03:25:29;1.10;;;1.00;;
14181;SDS011;7171;50.936;6.764;2024-02-26T03:27:56;0.97;;;0.90;;
14181;SDS011;7171;50.936;6.764;2024-02-26T03:30:24;0.97;;;0.90;;
14181;SDS011;7171;50.936;6.764;2024-02-26T03:32:51;1.30;;;1.20;;
14181;SDS011;7171;50.936;6.764;2024-02-26T03:35:17;0.90;;;0.90;;
14181;SDS011;7171;50.936;6.764;2024-02-26T03:37:45;1.00;;;0.90;;
14181;SDS011;7171;50.936;6.764;2024-02-26T03:40:12;1.00;;;0.90;;
14181;SDS011;7171;50.936;6.764;2024-02-26T03:42:39;2.03;;;1.00;;
14181;SDS011;7171;50.936;6.764;2024-02-26T03:45:05;1.80;;;1.40;;
14181;SDS011;7171;50.936;6.764;2024-02-26T03:47:37;0.83;;;0.83;;
14181;SDS011;7171;50.936;6.764;2024-02-26T03:50:05;0.80;;;0.80;;
14181;SDS011;7171;50.936;6.764;2024-02-26T03:52:33;1.27;;;1.00;;
14181;SDS011;7171;50.936;6.764;2024-02-26T03:55:00;0.97;;;0.97;;
14181;SDS011;7171;50.936;6.764;2024-02-26T03:57:26;1.13;;;1.03;;
14181;SDS011;7171;50.936;6.764;2024-02-26T03:59:53;0.90;;;0.90;;
14181;SDS011;7171;50.936;6.764;2024-02-26T04:02:21;1.30;;;0.90;;
14181;SDS011;7171;50.936;6.764;2024-02-26T04:04:49;0.80;;;0.80;;
14181;SDS011;7171;50.936;6.764;2024-02-26T04:07:16;1.93;;;1.00;;
14181;SDS011;7171;50.936;6.764;2024-02-26T04:09:44;0.97;;;0.83;;
14181;SDS011;7171;50.936;6.764;2024-02-26T04:12:11;1.17;;;1.00;;
14181;SDS011;7171;50.936;6.764;2024-02-26T04:14:37;1.63;;;1.03;;
14181;SDS011;7171;50.936;6.764;2024-02-26T04:17:04;0.90;;;0.90;;
14181;SDS011;7171;50.936;6.764;2024-02-26T04:19:31;1.10;;;1.00;;
14181;SDS011;7171;50.936;6.764;2024-02-26T04:21:59;1.80;;;0.93;;
14181;SDS011;7171;50.936;6.764;2024-02-26T04:24:26;1.10;;;1.00;;
14181;SDS011;7171;50.936;6.764;2024-02-26T04:26:52;4.37;;;0.90;;
14181;SDS011;7171;50.936;6.764;2024-02-26T04:29:19;0.83;;;0.83;;
14181;SDS011;7171;50.936;6.764;2024-02-26T04:31:46;0.80;;;0.80;;
14181;SDS011;7171;50.936;6.764;2024-02-26T04:34:13;0.70;;;0.70;;
14181;SDS011;7171;50.936;6.764;2024-02-26T04:36:39;1.70;;;1.00;;
14181;SDS011;7171;50.936;6.764;2024-02-26T04:39:08;0.80;;;0.80;;
14181;SDS011;7171;50.936;6.764;2024-02-26T04:41:36;1.20;;;1.10;;
14181;SDS011;7171;50.936;6.764;2024-02-26T04:44:03;2.87;;;1.13;;
14181;SDS011;7171;50.936;6.764;2024-02-26T04:46:29;1.10;;;1.00;;
14181;SDS011;7171;50.936;6.764;2024-02-26T04:48:56;0.73;;;0.73;;
14181;SDS011;7171;50.936;6.764;2024-02-26T04:51:23;3.63;;;1.10;;
14181;SDS011;7171;50.936;6.764;2024-02-26T04:53:50;0.80;;;0.80;;
14181;SDS011;7171;50.936;6.764;2024-02-26T04:56:19;1.43;;;1.00;;
14181;SDS011;7171;50.936;6.764;2024-02-26T04:58:46;3.63;;;1.00;;
14181;SDS011;7171;50.936;6.764;2024-02-26T05:01:13;2.70;;;0.87;;
14181;SDS011;7171;50.936;6.764;2024-02-26T05:03:41;1.47;;;1.00;;
14181;SDS011;7171;50.936;6.764;2024-02-26T05:06:08;4.43;;;1.00;;
14181;SDS011;7171;50.936;6.764;2024-02-26T05:08:35;1.30;;;1.10;;
14181;SDS011;7171;50.936;6.764;2024-02-26T05:11:03;1.20;;;1.10;;
14181;SDS011;7171;50.936;6.764;2024-02-26T05:13:32;1.20;;;1.10;;
14181;SDS011;7171;50.936;6.764;2024-02-26T05:15:59;1.73;;;1.20;;
14181;SDS011;7171;50.936;6.764;2024-02-26T05:18:25;5.60;;;1.00;;
14181;SDS011;7171;50.936;6.764;2024-02-26T05:20:52;0.80;;;0.80;;
14181;SDS011;7171;50.936;6.764;2024-02-26T05:23:19;1.37;;;1.27;;
14181;SDS011;7171;50.936;6.764;2024-02-26T05:25:45;1.53;;;1.07;;
14181;SDS011;7171;50.936;6.764;2024-02-26T05:28:13;1.03;;;0.93;;
14181;SDS011;7171;50.936;6.764;2024-02-26T05:30:42;0.90;;;0.90;;
14181;SDS011;7171;50.936;6.764;2024-02-26T05:33:08;0.70;;;0.70;;
14181;SDS011;7171;50.936;6.764;2024-02-26T05:35:35;1.00;;;1.00;;
14181;SDS011;7171;50.936;6.764;2024-02-26T05:38:01;0.90;;;0.90;;
14181;SDS011;7171;50.936;6.764;2024-02-26T05:40:28;1.03;;;0.87;;
14181;SDS011;7171;50.936;6.764;2024-02-26T05:42:56;3.77;;;1.30;;
14181;SDS011;7171;50.936;6.764;2024-02-26T05:45:22;1.40;;;1.03;;
14181;SDS011;7171;50.936;6.764;2024-02-26T05:47:50;0.93;;;0.90;;
14181;SDS011;7171;50.936;6.764;2024-02-26T05:50:17;1.07;;;1.00;;
14181;SDS011;7171;50.936;6.764;2024-02-26T05:52:44;1.13;;;1.03;;
14181;SDS011;7171;50.936;6.764;2024-02-26T05:55:10;1.27;;;1.17;;
14181;SDS011;7171;50.936;6.764;2024-02-26T05:57:38;0.97;;;0.87;;
14181;SDS011;7171;50.936;6.764;2024-02-26T06:00:05;1.30;;;1.10;;
14181;SDS011;7171;50.936;6.764;2024-02-26T06:02:32;2.23;;;1.20;;
14181;SDS011;7171;50.936;6.764;2024-02-26T06:05:00;1.13;;;0.93;;
14181;SDS011;7171;50.936;6.764;2024-02-26T06:07:28;1.30;;;1.20;;
14181;SDS011;7171;50.936;6.764;2024-02-26T06:09:54;1.43;;;0.90;;
14181;SDS011;7171;50.936;6.764;2024-02-26T06:12:20;1.53;;;1.10;;
14181;SDS011;7171;50.936;6.764;2024-02-26T06:14:47;1.57;;;1.27;;
14181;SDS011;7171;50.936;6.764;2024-02-26T06:17:13;1.10;;;0.97;;
14181;SDS011;7171;50.936;6.764;2024-02-26T06:19:40;1.10;;;1.00;;
14181;SDS011;7171;50.936;6.764;2024-02-26T06:22:08;0.97;;;0.90;;
14181;SDS011;7171;50.936;6.764;2024-02-26T06:24:35;1.87;;;1.27;;
14181;SDS011;7171;50.936;6.764;2024-02-26T06:27:02;1.10;;;1.10;;
14181;SDS011;7171;50.936;6.764;2024-02-26T06:29:29;1.50;;;1.40;;
14181;SDS011;7171;50.936;6.764;2024-02-26T06:31:55;1.23;;;1.13;;
14181;SDS011;7171;50.936;6.764;2024-02-26T06:34:22;2.10;;;1.30;;
14181;SDS011;7171;50.936;6.764;2024-02-26T06:36:49;0.90;;;0.90;;
14181;SDS011;7171;50.936;6.764;2024-02-26T06:39:17;1.37;;;1.13;;
14181;SDS011;7171;50.936;6.764;2024-02-26T06:41:44;1.20;;;1.10;;
14181;SDS011;7171;50.936;6.764;2024-02-26T06:44:11;1.23;;;1.10;;
14181;SDS011;7171;50.936;6.764;2024-02-26T06:46:39;1.90;;;1.23;;
14181;SDS011;7171;50.936;6.764;2024-02-26T06:49:05;1.47;;;1.20;;
14181;SDS011;7171;50.936;6.764;2024-02-26T06:51:32;1.80;;;1.70;;
14181;SDS011;7171;50.936;6.764;2024-02-26T06:53:59;1.40;;;1.30;;
14181;SDS011;7171;50.936;6.764;2024-02-26T06:56:27;3.80;;;1.70;;
14181;SDS011;7171;50.936;6.764;2024-02-26T06:58:53;1.10;;;1.00;;
14181;SDS011;7171;50.936;6.764;2024-02-26T07:01:20;1.07;;;0.93;;
14181;SDS011;7171;50.936;6.764;2024-02-26T07:03:47;2.00;;;1.50;;
14181;SDS011;7171;50.936;6.764;2024-02-26T07:06:13;1.37;;;1.27;;
14181;SDS011;7171;50.936;6.764;2024-02-26T07:08:40;1.60;;;1.30;;
14181;SDS011;7171;50.936;6.764;2024-02-26T07:11:07;1.47;;;1.17;;
14181;SDS011;7171;50.936;6.764;2024-02-26T07:13:36;2.07;;;1.10;;
14181;SDS011;7171;50.936;6.764;2024-02-26T07:16:03;5.20;;;1.63;;
14181;SDS011;7171;50.936;6.764;2024-02-26T07:18:30;1.30;;;1.10;;
14181;SDS011;7171;50.936;6.764;2024-02-26T07:20:56;1.63;;;1.20;;
14181;SDS011;7171;50.936;6.764;2024-02-26T07:23:23;3.13;;;1.50;;
14181;SDS011;7171;50.936;6.764;2024-02-26T07:25:50;2.13;;;1.30;;
14181;SDS011;7171;50.936;6.764;2024-02-26T07:28:17;1.93;;;1.50;;
14181;SDS011;7171;50.936;6.764;2024-02-26T07:30:46;1.47;;;1.27;;
14181;SDS011;7171;50.936;6.764;2024-02-26T07:33:13;1.33;;;1.23;;
14181;SDS011;7171;50.936;6.764;2024-02-26T07:35:39;1.30;;;0.90;;
14181;SDS011;7171;50.936;6.764;2024-02-26T07:38:06;1.30;;;1.20;;
14181;SDS011;7171;50.936;6.764;2024-02-26T07:40:33;6.43;;;1.30;;
14181;SDS011;7171;50.936;6.764;2024-02-26T07:42:59;1.47;;;1.17;;
14181;SDS011;7171;50.936;6.764;2024-02-26T07:45:26;2.97;;;1.20;;
14181;SDS011;7171;50.936;6.764;2024-02-26T07:47:54;1.67;;;1.30;;
14181;SDS011;7171;50.936;6.764;2024-02-26T07:50:21;1.40;;;1.27;;
14181;SDS011;7171;50.936;6.764;2024-02-26T07:52:47;1.53;;;1.27;;
14181;SDS011;7171;50.936;6.764;2024-02-26T07:55:16;1.50;;;1.40;;
14181;SDS011;7171;50.936;6.764;2024-02-26T07:57:44;1.83;;;1.10;;
14181;SDS011;7171;50.936;6.764;2024-02-26T08:00:11;1.53;;;1.40;;
14181;SDS011;7171;50.936;6.764;2024-02-26T08:02:41;1.10;;;0.93;;
14181;SDS011;7171;50.936;6.764;2024-02-26T08:05:09;1.67;;;1.33;;
14181;SDS011;7171;50.936;6.764;2024-02-26T08:07:36;3.23;;;1.33;;
14181;SDS011;7171;50.936;6.764;2024-02-26T08:10:03;1.40;;;1.30;;
14181;SDS011;7171;50.936;6.764;2024-02-26T08:12:30;2.00;;;1.30;;
14181;SDS011;7171;50.936;6.764;2024-02-26T08:14:56;4.77;;;1.87;;
14181;SDS011;7171;50.936;6.764;2024-02-26T08:17:24;1.53;;;1.30;;
14181;SDS011;7171;50.936;6.764;2024-02-26T08:19:50;1.37;;;1.27;;
14181;SDS011;7171;50.936;6.764;2024-02-26T08:22:18;1.40;;;1.30;;
14181;SDS011;7171;50.936;6.764;2024-02-26T08:24:45;1.57;;;1.30;;
14181;SDS011;7171;50.936;6.764;2024-02-26T08:27:12;1.50;;;1.40;;
14181;SDS011;7171;50.936;6.764;2024-02-26T08:29:38;3.60;;;1.27;;
14181;SDS011;7171;50.936;6.764;2024-02-26T08:32:05;1.30;;;1.20;;
14181;SDS011;7171;50.936;6.764;2024-02-26T08:34:32;1.20;;;1.10;;
14181;SDS011;7171;50.936;6.764;2024-02-26T08:36:59;1.57;;;1.40;;
14181;SDS011;7171;50.936;6.764;2024-02-26T08:39:27;1.27;;;1.17;;
14181;SDS011;7171;50.936;6.764;2024-02-26T08:41:53;1.47;;;1.23;;
14181;SDS011;7171;50.936;6.764;2024-02-26T08:44:20;1.60;;;1.40;;
14181;SDS011;7171;50.936;6.764;2024-02-26T08:46:47;1.20;;;1.10;;
14181;SDS011;7171;50.936;6.764;2024-02-26T08:49:13;1.47;;;1.37;;
14181;SDS011;7171;50.936;6.764;2024-02-26T08:51:41;1.20;;;1.10;;
14181;SDS011;7171;50.936;6.764;2024-02-26T08:54:08;1.70;;;1.40;;
14181;SDS011;7171;50.936;6.764;2024-02-26T08:56:36;1.40;;;1.30;;
14181;SDS011;7171;50.936;6.764;2024-02-26T08:59:03;1.53;;;1.43;;
14181;SDS011;7171;50.936;6.764;2024-02-26T09:01:30;1.57;;;1.30;;
14181;SDS011;7171;50.936;6.764;2024-02-26T09:03:57;1.70;;;1.17;;
14181;SDS011;7171;50.936;6.764;2024-02-26T09:06:24;1.67;;;1.40;;
14181;SDS011;7171;50.936;6.764;2024-02-26T09:08:51;2.00;;;1.30;;
14181;SDS011;7171;50.936;6.764;2024-02-26T09:11:18;1.90;;;1.67;;
14181;SDS011;7171;50.936;6.764;2024-02-26T09:13:46;1.30;;;1.20;;
14181;SDS011;7171;50.936;6.764;2024-02-26T09:16:12;3.30;;;1.43;;
14181;SDS011;7171;50.936;6.764;2024-02-26T09:18:39;3.17;;;1.23;;
14181;SDS011;7171;50.936;6.764;2024-02-26T09:21:06;1.30;;;1.20;;
14181;SDS011;7171;50.936;6.764;2024-02-26T09:23:33;2.83;;;1.50;;
14181;SDS011;7171;50.936;6.764;2024-02-26T09:26:00;1.77;;;1.30;;
14181;SDS011;7171;50.936;6.764;2024-02-26T09:28:26;1.13;;;1.10;;
14181;SDS011;7171;50.936;6.764;2024-02-26T09:30:57;1.43;;;1.33;;
14181;SDS011;7171;50.936;6.764;2024-02-26T09:33:24;1.23;;;1.13;;
14181;SDS011;7171;50.936;6.764;2024-02-26T09:35:51;1.77;;;1.40;;
14181;SDS011;7171;50.936;6.764;2024-02-26T09:38:18;2.07;;;1.70;;
14181;SDS011;7171;50.936;6.764;2024-02-26T09:40:44;1.60;;;1.50;;
14181;SDS011;7171;50.936;6.764;2024-02-26T09:43:12;1.63;;;1.40;;
14181;SDS011;7171;50.936;6.764;2024-02-26T09:45:40;2.07;;;1.50;;
14181;SDS011;7171;50.936;6.764;2024-02-26T09:48:09;2.50;;;1.40;;
14181;SDS011;7171;50.936;6.764;2024-02-26T09:50:39;3.07;;;1.70;;
14181;SDS011;7171;50.936;6.764;2024-02-26T09:53:07;1.57;;;1.47;;
14181;SDS011;7171;50.936;6.764;2024-02-26T09:55:36;1.50;;;1.03;;
14181;SDS011;7171;50.936;6.764;2024-02-26T09:58:03;2.30;;;1.77;;
14181;SDS011;7171;50.936;6.764;2024-02-26T10:00:32;1.33;;;1.23;;
14181;SDS011;7171;50.936;6.764;2024-02-26T10:03:04;2.37;;;1.27;;
14181;SDS011;7171;50.936;6.764;2024-02-26T10:05:33;1.10;;;1.00;;
14181;SDS011;7171;50.936;6.764;2024-02-26T10:08:01;3.23;;;1.47;;
14181;SDS011;7171;50.936;6.764;2024-02-26T10:10:28;1.73;;;1.53;;
14181;SDS011;7171;50.936;6.764;2024-02-26T10:12:56;1.50;;;1.40;;
14181;SDS011;7171;50.936;6.764;2024-02-26T10:15:23;1.20;;;1.10;;
14181;SDS011;7171;50.936;6.764;2024-02-26T10:17:50;2.37;;;1.60;;
14181;SDS011;7171;50.936;6.764;2024-02-26T10:20:17;1.60;;;1.40;;
14181;SDS011;7171;50.936;6.764;2024-02-26T10:22:48;2.37;;;1.50;;
14181;SDS011;7171;50.936;6.764;2024-02-26T10:25:15;3.00;;;1.97;;
14181;SDS011;7171;50.936;6.764;2024-02-26T10:27:42;1.77;;;1.60;;
14181;SDS011;7171;50.936;6.764;2024-02-26T10:30:16;1.87;;;1.50;;
14181;SDS011;7171;50.936;6.764;2024-02-26T10:32:44;1.67;;;1.40;;
14181;SDS011;7171;50.936;6.764;2024-02-26T10:35:12;1.80;;;1.20;;
14181;SDS011;7171;50.936;6.764;2024-02-26T10:37:39;3.23;;;1.50;;
14181;SDS011;7171;50.936;6.764;2024-02-26T10:40:09;2.03;;;1.40;;
14181;SDS011;7171;50.936;6.764;2024-02-26T10:42:36;2.03;;;1.60;;
14181;SDS011;7171;50.936;6.764;2024-02-26T10:45:04;1.57;;;1.43;;
14181;SDS011;7171;50.936;6.764;2024-02-26T10:47:31;1.50;;;1.40;;
14181;SDS011;7171;50.936;6.764;2024-02-26T10:49:59;1.70;;;1.60;;
14181;SDS011;7171;50.936;6.764;2024-02-26T10:52:25;1.43;;;1.33;;
14181;SDS011;7171;50.936;6.764;2024-02-26T10:54:53;2.93;;;1.60;;
14181;SDS011;7171;50.936;6.764;2024-02-26T10:57:23;1.20;;;1.10;;
14181;SDS011;7171;50.936;6.764;2024-02-26T10:59:51;3.87;;;1.70;;
14181;SDS011;7171;50.936;6.764;2024-02-26T11:02:19;4.67;;;1.70;;
14181;SDS011;7171;50.936;6.764;2024-02-26T11:04:46;2.77;;;1.77;;
14181;SDS011;7171;50.936;6.764;2024-02-26T11:07:15;2.07;;;1.77;;
14181;SDS011;7171;50.936;6.764;2024-02-26T11:09:42;2.50;;;1.67;;
14181;SDS011;7171;50.936;6.764;2024-02-26T11:12:12;2.20;;;1.83;;
14181;SDS011;7171;50.936;6.764;2024-02-26T11:14:41;4.00;;;1.80;;
14181;SDS011;7171;50.936;6.764;2024-02-26T11:17:12;2.93;;;1.60;;
14181;SDS011;7171;50.936;6.764;2024-02-26T11:19:41;1.90;;;1.80;;
14181;SDS011;7171;50.936;6.764;2024-02-26T11:22:10;1.43;;;1.20;;
14181;SDS011;7171;50.936;6.764;2024-02-26T11:24:37;2.27;;;1.50;;
14181;SDS011;7171;50.936;6.764;2024-02-26T11:27:06;2.63;;;1.77;;
14181;SDS011;7171;50.936;6.764;2024-02-26T11:29:37;5.30;;;1.30;;
14181;SDS011;7171;50.936;6.764;2024-02-26T11:32:09;4.07;;;2.53;;
14181;SDS011;7171;50.936;6.764;2024-02-26T11:34:36;2.23;;;1.87;;
14181;SDS011;7171;50.936;6.764;2024-02-26T11:37:10;2.57;;;1.50;;
14181;SDS011;7171;50.936;6.764;2024-02-26T11:39:37;1.93;;;1.73;;
14181;SDS011;7171;50.936;6.764;2024-02-26T11:42:06;2.27;;;1.77;;
14181;SDS011;7171;50.936;6.764;2024-02-26T11:44:33;3.13;;;1.70;;
14181;SDS011;7171;50.936;6.764;2024-02-26T11:47:10;3.40;;;1.73;;
14181;SDS011;7171;50.936;6.764;2024-02-26T11:49:37;1.83;;;1.70;;
14181;SDS011;7171;50.936;6.764;2024-02-26T11:52:05;2.50;;;1.80;;
14181;SDS011;7171;50.936;6.764;2024-02-26T11:54:39;2.43;;;1.80;;
14181;SDS011;7171;50.936;6.764;2024-02-26T11:57:26;2.57;;;1.53;;
14181;SDS011;7171;50.936;6.764;2024-02-26T11:59:53;2.00;;;1.57;;
14181;SDS011;7171;50.936;6.764;2024-02-26T12:02:40;2.13;;;1.43;;
14181;SDS011;7171;50.936;6.764;2024-02-26T12:05:10;3.00;;;1.83;;
14181;SDS011;7171;50.936;6.764;2024-02-26T12:07:45;2.47;;;1.80;;
14181;SDS011;7171;50.936;6.764;2024-02-26T12:10:14;1.60;;;1.50;;
14181;SDS011;7171;50.936;6.764;2024-02-26T12:12:42;2.33;;;2.00;;
14181;SDS011;7171;50.936;6.764;2024-02-26T12:15:09;4.27;;;1.90;;
14181;SDS011;7171;50.936;6.764;2024-02-26T12:17:37;2.77;;;2.07;;
14181;SDS011;7171;50.936;6.764;2024-02-26T12:20:09;2.43;;;1.80;;
14181;SDS011;7171;50.936;6.764;2024-02-26T12:22:36;2.87;;;2.10;;
14181;SDS011;7171;50.936;6.764;2024-02-26T12:25:04;1.87;;;1.77;;
14181;SDS011;7171;50.936;6.764;2024-02-26T12:27:31;5.33;;;2.13;;
14181;SDS011;7171;50.936;6.764;2024-02-26T12:29:58;1.87;;;1.70;;
14181;SDS011;7171;50.936;6.764;2024-02-26T12:32:25;3.20;;;1.73;;
14181;SDS011;7171;50.936;6.764;2024-02-26T12:34:53;1.43;;;1.33;;
14181;SDS011;7171;50.936;6.764;2024-02-26T12:37:19;1.97;;;1.80;;
14181;SDS011;7171;50.936;6.764;2024-02-26T12:39:46;1.77;;;1.30;;
14181;SDS011;7171;50.936;6.764;2024-02-26T12:42:13;2.90;;;1.80;;
14181;SDS011;7171;50.936;6.764;2024-02-26T12:44:40;7.03;;;1.60;;
14181;SDS011;7171;50.936;6.764;2024-02-26T12:47:07;3.43;;;1.93;;
14181;SDS011;7171;50.936;6.764;2024-02-26T12:49:35;2.10;;;1.83;;
14181;SDS011;7171;50.936;6.764;2024-02-26T12:52:03;2.33;;;1.60;;
14181;SDS011;7171;50.936;6.764;2024-02-26T12:54:31;1.93;;;1.60;;
14181;SDS011;7171;50.936;6.764;2024-02-26T12:56:59;2.57;;;1.93;;
14181;SDS011;7171;50.936;6.764;2024-02-26T12:59:28;2.83;;;1.93;;
14181;SDS011;7171;50.936;6.764;2024-02-26T13:01:55;2.37;;;1.83;;
14181;SDS011;7171;50.936;6.764;2024-02-26T13:04:22;5.67;;;1.80;;
14181;SDS011;7171;50.936;6.764;2024-02-26T13:06:49;3.40;;;1.80;;
14181;SDS011;7171;50.936;6.764;2024-02-26T13:09:17;1.63;;;1.40;;
14181;SDS011;7171;50.936;6.764;2024-02-26T13:11:44;3.47;;;1.97;;
14181;SDS011;7171;50.936;6.764;2024-02-26T13:14:18;2.17;;;1.80;;
14181;SDS011;7171;50.936;6.764;2024-02-26T13:16:54;2.23;;;1.93;;
14181;SDS011;7171;50.936;6.764;2024-02-26T13:19:21;2.07;;;1.57;;
14181;SDS011;7171;50.936;6.764;2024-02-26T13:21:47;3.00;;;1.83;;
14181;SDS011;7171;50.936;6.764;2024-02-26T13:24:14;2.13;;;1.90;;
14181;SDS011;7171;50.936;6.764;2024-02-26T13:26:42;2.50;;;2.17;;
14181;SDS011;7171;50.936;6.764;2024-02-26T13:29:16;3.93;;;2.10;;
14181;SDS011;7171;50.936;6.764;2024-02-26T13:31:43;2.77;;;2.30;;
14181;SDS011;7171;50.936;6.764;2024-02-26T13:34:10;3.90;;;2.20;;
14181;SDS011;7171;50.936;6.764;2024-02-26T13:36:36;3.03;;;2.30;;
14181;SDS011;7171;50.936;6.764;2024-02-26T13:39:03;2.77;;;2.50;;
14181;SDS011;7171;50.936;6.764;2024-02-26T13:41:30;3.17;;;2.40;;
14181;SDS011;7171;50.936;6.764;2024-02-26T13:43:59;2.53;;;2.33;;
14181;SDS011;7171;50.936;6.764;2024-02-26T13:46:26;2.67;;;2.27;;
14181;SDS011;7171;50.936;6.764;2024-02-26T13:48:53;2.70;;;1.93;;
14181;SDS011;7171;50.936;6.764;2024-02-26T13:51:20;2.23;;;2.03;;
14181;SDS011;7171;50.936;6.764;2024-02-26T13:53:47;4.43;;;2.10;;
14181;SDS011;7171;50.936;6.764;2024-02-26T13:56:13;2.03;;;1.83;;
14181;SDS011;7171;50.936;6.764;2024-02-26T13:58:40;3.63;;;1.97;;
14181;SDS011;7171;50.936;6.764;2024-02-26T14:01:08;2.80;;;2.20;;
14181;SDS011;7171;50.936;6.764;2024-02-26T14:03:35;2.50;;;2.30;;
14181;SDS011;7171;50.936;6.764;2024-02-26T14:06:01;2.67;;;2.23;;
14181;SDS011;7171;50.936;6.764;2024-02-26T14:08:28;4.43;;;2.47;;
14181;SDS011;7171;50.936;6.764;2024-02-26T14:10:55;4.33;;;3.40;;
14181;SDS011;7171;50.936;6.764;2024-02-26T14:13:21;4.73;;;3.27;;
14181;SDS011;7171;50.936;6.764;2024-02-26T14:15:48;3.83;;;2.47;;
14181;SDS011;7171;50.936;6.764;2024-02-26T14:18:16;5.77;;;3.23;;
14181;SDS011;7171;50.936;6.764;2024-02-26T14:20:43;4.30;;;3.43;;
14181;SDS011;7171;50.936;6.764;2024-02-26T14:23:10;8.57;;;3.23;;
14181;SDS011;7171;50.936;6.764;2024-02-26T14:25:37;5.37;;;3.20;;
14181;SDS011;7171;50.936;6.764;2024-02-26T14:28:04;4.47;;;2.93;;
14181;SDS011;7171;50.936;6.764;2024-02-26T14:30:31;7.13;;;3.60;;
14181;SDS011;7171;50.936;6.764;2024-02-26T14:32:58;5.37;;;3.90;;
14181;SDS011;7171;50.936;6.764;2024-02-26T14:35:26;4.27;;;3.00;;
14181;SDS011;7171;50.936;6.764;2024-02-26T14:37:53;4.83;;;2.80;;
14181;SDS011;7171;50.936;6.764;2024-02-26T14:40:20;7.53;;;3.60;;
14181;SDS011;7171;50.936;6.764;2024-02-26T14:42:47;3.63;;;3.27;;
14181;SDS011;7171;50.936;6.764;2024-02-26T14:45:13;5.70;;;3.10;;
14181;SDS011;7171;50.936;6.764;2024-02-26T14:47:41;6.73;;;4.10;;
14181;SDS011;7171;50.936;6.764;2024-02-26T14:50:08;8.40;;;4.53;;
14181;SDS011;7171;50.936;6.764;2024-02-26T14:52:37;5.40;;;3.60;;
14181;SDS011;7171;50.936;6.764;2024-02-26T14:55:04;5.53;;;4.50;;
14181;SDS011;7171;50.936;6.764;2024-02-26T14:57:31;6.67;;;4.33;;
14181;SDS011;7171;50.936;6.764;2024-02-26T14:59:58;7.97;;;6.20;;
14181;SDS011;7171;50.936;6.764;2024-02-26T15:02:25;8.33;;;5.60;;